Time;durP1;ratioP1;P1;durP2;ratioP2;P2;SDS_P1;SDS_P2;PMS_P1;PMS_P2;Temp;Humidity;BMP_temperature;BMP_pressure;BME280_temperature;BME280_humidity;BME280_pressure;Samples;Min_cycle;Max_cycle;Signal;HPM_P1;HPM_P2
2023/01/02 00:01:17;;;;;;;9.40;5.40;;;;;;;8.12;83.56;100095.96;106621;1303;137893;-61
2023/01/02 00:03:44;;;;;;;;;;;;;;;8.09;83.77;100095.61;106711;1302;22328;-61
2023/01/02 00:06:11;;;;;;;6.70;4.60;;;;;;;8.07;83.88;100098.08;106600;1303;124315;-61
2023/01/02 00:08:37;;;;;;;;;;;;;;;8.03;83.93;100098.51;106710;1296;22423;-61
2023/01/02 00:11:04;;;;;;;12.20;5.40;;;;;;;8.00;83.91;100095.52;106743;1294;22103;-61
2023/01/02 00:13:31;;;;;;;;;;;;;;;7.98;84.13;100094.96;106571;1298;22358;-61
2023/01/02 00:15:58;;;;;;;7.80;4.30;;;;;;;7.95;84.20;100095.16;106662;1302;23199;-62
2023/01/02 00:18:24;;;;;;;;;;;;;;;7.94;84.26;100096.79;106554;1296;137982;-62
2023/01/02 00:20:51;;;;;;;8.40;5.00;;;;;;;7.92;84.28;100095.64;106673;1297;22115;-62
2023/01/02 00:23:18;;;;;;;8.90;4.60;;;;;;;7.90;84.42;100094.52;106540;1303;138474;-62
2023/01/02 00:25:46;;;;;;;;;;;;;;;7.89;84.53;100097.42;106733;1302;22324;-61
2023/01/02 00:28:14;;;;;;;7.30;4.60;;;;;;;7.88;84.50;100098.64;106656;1303;22228;-61
2023/01/02 00:30:41;;;;;;;10.70;4.90;;;;;;;7.86;84.58;100101.61;106566;1302;137646;-61
2023/01/02 00:33:07;;;;;;;9.60;5.30;;;;;;;7.85;84.66;100106.89;106655;1303;22161;-61
2023/01/02 00:35:35;;;;;;;;;;;;;;;7.83;84.67;100105.40;106581;1302;137299;-61
2023/01/02 00:38:02;;;;;;;;;;;;;;;7.81;84.65;100108.46;106651;1303;22414;-61
2023/01/02 00:40:29;;;;;;;9.30;4.70;;;;;;;7.76;84.72;100105.03;106746;1302;23313;-65
2023/01/02 00:42:55;;;;;;;9.30;4.90;;;;;;;7.75;84.81;100110.59;106564;1288;138443;-65
2023/01/02 00:45:22;;;;;;;;;;;;;;;7.73;84.99;100111.16;106678;1296;22346;-64
2023/01/02 00:47:49;;;;;;;7.30;4.70;;;;;;;7.71;85.18;100112.84;106605;1302;124692;-63
2023/01/02 00:50:16;;;;;;;7.20;4.90;;;;;;;7.70;85.26;100109.10;106687;1298;22192;-65
2023/01/02 00:52:42;;;;;;;;;;;;;;;7.69;85.32;100109.69;106758;1288;23099;-65
2023/01/02 00:55:09;;;;;;;7.40;4.90;;;;;;;7.69;85.52;100109.02;106613;1295;125455;-64
2023/01/02 00:57:38;;;;;;;8.20;4.70;;;;;;;7.68;85.55;100107.36;106704;1302;22417;-65
2023/01/02 01:00:05;;;;;;;7.40;5.00;;;;;;;7.67;85.65;100107.70;106647;1288;137492;-65
2023/01/02 01:02:32;;;;;;;5.90;4.80;;;;;;;7.66;85.63;100104.45;106685;1302;22244;-65
2023/01/02 01:04:59;;;;;;;;;;;;;;;7.65;85.74;100107.59;106715;1294;22374;-65
2023/01/02 01:07:28;;;;;;;7.10;4.20;;;;;;;7.65;85.67;100111.72;106633;1302;124737;-65
2023/01/02 01:09:54;;;;;;;8.60;4.90;;;;;;;7.66;85.80;100114.94;106694;1303;22893;-64
2023/01/02 01:12:21;;;;;;;9.50;4.70;;;;;;;7.66;85.88;100114.30;106575;1303;138324;-65
2023/01/02 01:14:48;;;;;;;;;;;;;;;7.67;85.73;100116.80;106619;1303;23287;-65
2023/01/02 01:17:14;;;;;;;6.80;4.30;;;;;;;7.66;85.90;100117.64;106608;1302;124933;-64
2023/01/02 01:19:41;;;;;;;7.00;4.60;;;;;;;7.66;85.88;100123.61;106706;1302;22134;-64
2023/01/02 01:22:10;;;;;;;10.10;5.10;;;;;;;7.66;86.04;100128.50;106656;1297;22241;-64
2023/01/02 01:24:37;;;;;;;9.90;5.50;;;;;;;7.66;86.01;100124.32;106560;1302;137955;-65
2023/01/02 01:27:03;;;;;;;;;;;;;;;7.65;85.94;100120.40;106700;1293;23663;-65
2023/01/02 01:29:30;;;;;;;7.30;4.80;;;;;;;7.65;85.99;100119.53;106577;1302;123718;-64
2023/01/02 01:31:57;;;;;;;8.10;5.80;;;;;;;7.63;86.04;100119.70;106668;1288;23142;-65
2023/01/02 01:34:24;;;;;;;;;;;;;;;7.62;86.15;100117.50;106666;1302;22507;-64
2023/01/02 01:36:50;;;;;;;9.20;5.20;;;;;;;7.62;86.08;100114.49;106617;1302;125580;-65
2023/01/02 01:39:17;;;;;;;7.70;5.60;;;;;;;7.61;86.07;100117.67;106742;1302;22129;-62
2023/01/02 01:41:44;;;;;;;6.10;4.70;;;;;;;7.60;86.13;100113.48;106467;1302;138285;-62
2023/01/02 01:44:40;;;;;;;6.90;4.90;;;;;;;7.58;86.29;100114.55;106705;1288;22178;-62
2023/01/02 01:47:29;;;;;;;7.70;4.70;;;;;;;7.60;86.32;100117.05;106610;1293;138219;-62
2023/01/02 01:50:04;;;;;;;5.90;4.40;;;;;;;7.61;86.40;100120.06;106711;1302;22163;-62
2023/01/02 01:52:32;;;;;;;8.40;5.50;;;;;;;7.62;86.38;100123.67;106748;1302;22136;-62
2023/01/02 01:55:02;;;;;;;14.20;5.50;;;;;;;7.63;86.37;100126.25;106501;1302;137347;-62
2023/01/02 01:57:32;;;;;;;9.70;5.20;;;;;;;7.60;86.29;100127.48;106711;1288;22601;-62
2023/01/02 01:59:59;;;;;;;11.00;6.30;;;;;;;7.61;86.30;100130.73;106618;1302;137285;-63
2023/01/02 02:02:26;;;;;;;9.50;5.40;;;;;;;7.61;86.16;100131.65;106766;1302;22131;-62
2023/01/02 02:04:54;;;;;;;7.00;5.10;;;;;;;7.60;86.05;100127.90;106684;1292;23127;-62
2023/01/02 02:07:21;;;;;;;9.20;5.80;;;;;;;7.60;85.86;100124.52;106610;1302;138437;-62
2023/01/02 02:09:49;;;;;;;;;;;;;;;7.59;85.77;100133.16;106604;1299;23137;-62
2023/01/02 02:12:16;;;;;;;8.60;4.20;;;;;;;7.56;85.61;100131.98;106639;1287;124757;-61
2023/01/02 02:14:49;;;;;;;14.40;5.10;;;;;;;7.53;85.63;100138.47;106761;1302;22329;-62
2023/01/02 02:17:40;;;;;;;9.70;4.80;;;;;;;7.51;85.72;100137.20;106637;1302;139104;-62
2023/01/02 02:20:22;;;;;;;7.60;5.10;;;;;;;7.48;85.61;100140.33;106701;1280;22839;-62
2023/01/02 02:23:31;;;;;;;9.00;5.50;;;;;;;7.44;85.66;100143.52;106729;1302;22117;-62
2023/01/02 02:26:09;;;;;;;9.60;5.60;;;;;;;7.41;85.79;100145.83;106072;1309;23551;-62
2023/01/02 02:28:55;;;;;;;13.10;6.90;;;;;;;7.37;85.74;100143.58;106023;1303;22149;-62
2023/01/02 02:31:41;;;;;;;19.50;9.10;;;;;;;7.34;85.71;100153.21;105825;1313;138264;-62
2023/01/02 02:34:28;;;;;;;13.20;8.00;;;;;;;7.30;85.71;100154.70;105830;1311;22268;-62
2023/01/02 02:36:58;;;;;;;12.90;7.50;;;;;;;7.27;85.64;100157.56;105842;1310;139390;-62
2023/01/02 02:39:57;;;;;;;13.60;7.60;;;;;;;7.23;85.79;100157.45;105984;1311;22246;-65
2023/01/02 02:42:30;;;;;;;10.90;6.20;;;;;;;7.20;85.72;100166.30;105105;1317;138638;-64
2023/01/02 02:45:21;;;;;;;11.30;6.10;;;;;;;7.18;86.04;100168.44;105338;1317;22283;-64
2023/01/02 02:47:55;;;;;;;10.70;5.80;;;;;;;7.15;86.09;100172.41;105294;1316;139930;-64
2023/01/02 02:50:29;;;;;;;6.80;5.30;;;;;;;7.13;86.06;100184.09;105210;1319;22192;-64
2023/01/02 02:53:03;;;;;;;11.10;6.50;;;;;;;7.09;86.14;100181.96;105256;1317;22177;-64
2023/01/02 02:55:37;;;;;;;8.10;5.70;;;;;;;7.07;86.09;100193.17;105221;1316;138188;-65
2023/01/02 02:58:04;;;;;;;10.30;6.60;;;;;;;7.04;86.28;100194.17;105197;1317;22214;-65
2023/01/02 03:00:31;;;;;;;13.10;6.30;;;;;;;7.00;86.22;100197.39;105234;1304;138253;-65
2023/01/02 03:02:57;;;;;;;12.30;6.50;;;;;;;6.96;86.09;100197.50;105796;1295;22382;-65
2023/01/02 03:05:30;;;;;;;12.00;6.60;;;;;;;6.93;85.97;100198.90;106032;1308;139484;-64
2023/01/02 03:08:05;;;;;;;16.30;6.90;;;;;;;6.89;85.97;100199.85;105914;1311;22234;-64
2023/01/02 03:10:55;;;;;;;12.90;6.80;;;;;;;6.85;86.04;100199.36;105823;1308;22311;-64
2023/01/02 03:13:28;;;;;;;9.40;5.60;;;;;;;6.81;86.21;100201.55;105928;1296;138281;-64
2023/01/02 03:16:10;;;;;;;10.00;5.70;;;;;;;6.79;86.56;100203.31;106002;1311;22369;-65
2023/01/02 03:18:48;;;;;;;8.00;5.30;;;;;;;6.77;86.84;100199.50;106373;1302;137872;-64
2023/01/02 03:21:40;;;;;;;9.40;6.50;;;;;;;6.75;87.17;100198.02;106743;1302;22136;-64
2023/01/02 03:24:12;;;;;;;11.90;6.90;;;;;;;6.73;87.17;100200.56;106608;1294;137531;-64
2023/01/02 03:26:41;;;;;;;10.20;6.30;;;;;;;6.71;87.26;100194.69;106671;1302;22196;-64
2023/01/02 03:29:20;;;;;;;11.30;7.10;;;;;;;6.69;87.29;100193.28;106613;1302;22268;-65
2023/01/02 03:31:50;;;;;;;12.00;6.30;;;;;;;6.66;87.55;100193.63;106695;1302;22115;-64
2023/01/02 03:34:19;;;;;;;10.00;5.90;;;;;;;6.65;87.47;100197.46;106605;1302;23333;-64
2023/01/02 03:36:48;;;;;;;11.20;6.10;;;;;;;6.63;87.59;100200.77;106618;1302;139208;-64
2023/01/02 03:39:17;;;;;;;11.20;6.60;;;;;;;6.62;87.87;100203.24;106621;1302;22297;-64
2023/01/02 03:41:46;;;;;;;9.20;5.90;;;;;;;6.63;88.13;100208.41;106640;1302;139804;-64
2023/01/02 03:44:13;;;;;;;10.10;6.00;;;;;;;6.64;88.24;100213.14;106715;1302;23019;-64
2023/01/02 03:46:52;;;;;;;9.20;6.00;;;;;;;6.65;88.36;100212.83;106659;1294;22129;-64
2023/01/02 03:49:25;;;;;;;11.70;5.90;;;;;;;6.66;88.43;100215.91;106642;1302;138088;-64
2023/01/02 03:51:52;;;;;;;11.60;5.90;;;;;;;6.66;88.56;100214.61;106746;1302;22205;-64
2023/01/02 03:54:19;;;;;;;10.00;6.20;;;;;;;6.66;88.50;100214.29;106623;1302;137468;-64
2023/01/02 03:56:55;;;;;;;8.40;6.40;;;;;;;6.65;88.84;100216.16;106760;1288;22121;-64
2023/01/02 03:59:45;;;;;;;9.70;6.40;;;;;;;6.65;88.88;100217.95;106634;1302;138777;-64
2023/01/02 04:02:32;;;;;;;15.50;6.30;;;;;;;6.65;88.89;100216.58;106585;1302;23036;-64
2023/01/02 04:05:03;;;;;;;13.40;6.30;;;;;;;6.65;89.04;100224.08;106763;1302;22126;-64
2023/01/02 04:07:35;;;;;;;9.00;6.00;;;;;;;6.67;89.35;100221.91;106560;1295;140222;-64
2023/01/02 04:10:03;;;;;;;8.10;5.40;;;;;;;6.66;89.49;100225.41;106691;1302;22139;-65
2023/01/02 04:12:30;;;;;;;7.50;5.00;;;;;;;6.69;89.65;100231.65;106408;1302;137877;-64
2023/01/02 04:15:54;;;;;;;9.40;5.70;;;;;;;6.74;89.81;100226.42;99612;1341;546416;-64
2023/01/02 04:18:24;;;;;;;;;;;;;;;6.75;89.95;100228.23;101182;1305;137575;-64
2023/01/02 04:20:54;;;;;;;10.40;6.80;;;;;;;6.76;89.88;100231.17;101022;1304;25078;-64
2023/01/02 04:23:25;;;;;;;10.80;6.80;;;;;;;6.75;89.77;100239.01;105116;1317;136915;-64
2023/01/02 04:26:02;;;;;;;10.40;6.20;;;;;;;6.74;89.89;100247.00;105556;1315;22200;-65
2023/01/02 04:28:30;;;;;;;8.70;6.50;;;;;;;6.75;89.63;100252.55;105748;1314;78134;-64
2023/01/02 04:31:01;;;;;;;11.60;6.80;;;;;;;6.74;89.54;100255.60;105886;1312;139363;-64
2023/01/02 04:33:28;;;;;;;10.10;6.00;;;;;;;6.73;89.42;100260.34;105967;1313;22381;-64
2023/01/02 04:35:55;;;;;;;11.60;7.00;;;;;;;6.72;89.23;100260.52;105713;1313;139044;-64
2023/01/02 04:38:22;;;;;;;11.80;6.60;;;;;;;6.71;89.12;100263.73;106078;1298;23027;-65
2023/01/02 04:40:48;;;;;;;9.00;6.00;;;;;;;6.70;89.10;100268.35;106069;1297;22273;-65
2023/01/02 04:43:17;;;;;;;11.00;6.30;;;;;;;6.68;89.09;100266.05;105957;1312;137362;-64
2023/01/02 04:45:47;;;;;;;13.10;7.00;;;;;;;6.67;88.89;100269.56;106071;1312;22199;-65
2023/01/02 04:48:14;;;;;;;10.90;6.40;;;;;;;6.64;88.79;100272.78;105938;1307;138284;-64
2023/01/02 04:50:42;;;;;;;14.40;7.40;;;;;;;6.61;88.70;100268.98;106085;1312;22188;-65
2023/01/02 04:53:09;;;;;;;14.00;7.30;;;;;;;6.58;88.66;100274.65;106090;1312;22239;-65
2023/01/02 04:55:37;;;;;;;9.80;6.40;;;;;;;6.53;88.65;100276.15;105969;1312;137464;-64
2023/01/02 04:58:03;;;;;;;12.60;6.90;;;;;;;6.50;88.68;100283.08;106085;1310;22136;-65
2023/01/02 05:00:30;;;;;;;;;;;;;;;6.47;88.57;100283.73;105997;1313;137835;-64
2023/01/02 05:02:57;;;;;;;9.60;6.30;;;;;;;6.44;88.62;100285.60;106361;1309;22130;-65
2023/01/02 05:05:24;;;;;;;9.00;5.80;;;;;;;6.41;88.83;100289.64;106234;1307;139383;-64
2023/01/02 05:07:50;;;;;;;13.50;5.90;;;;;;;6.37;88.87;100293.52;106330;1308;22162;-63
2023/01/02 05:10:17;;;;;;;9.40;5.10;;;;;;;6.36;88.87;100298.10;106304;1309;22146;-63
2023/01/02 05:12:44;;;;;;;13.40;6.50;;;;;;;6.33;88.83;100303.46;106792;1284;138373;-64
2023/01/02 05:15:11;;;;;;;;;;;;;;;6.31;89.06;100310.13;106982;1300;22398;-63
2023/01/02 05:17:39;;;;;;;11.40;6.30;;;;;;;6.28;89.00;100314.48;106867;1300;123796;-64
2023/01/02 05:20:08;;;;;;;9.50;6.30;;;;;;;6.24;89.29;100317.61;106976;1300;22919;-64
2023/01/02 05:25:25;;;;;;;9.30;6.40;;;;;;;6.17;89.14;100312.80;106844;1292;138837;-64
2023/01/02 05:27:53;;;;;;;13.80;7.60;;;;;;;6.15;89.01;100315.67;106967;1292;22430;-64
2023/01/02 05:30:20;;;;;;;11.10;7.60;;;;;;;6.12;89.37;100316.04;106839;1300;140504;-64
2023/01/02 05:32:47;;;;;;;8.70;6.60;;;;;;;6.10;89.15;100318.84;106961;1300;22137;-64
2023/01/02 05:35:13;;;;;;;;;;;;;;;6.08;89.32;100328.23;106965;1298;22339;-63
2023/01/02 05:37:40;;;;;;;10.80;6.60;;;;;;;6.07;89.53;100332.68;106829;1291;124916;-63
2023/01/02 05:40:09;;;;;;;9.90;7.10;;;;;;;6.06;89.58;100336.86;105018;1293;24301;-65
2023/01/02 05:42:36;;;;;;;14.20;7.70;;;;;;;6.05;89.75;100337.08;102422;1291;138832;-64
2023/01/02 05:45:03;;;;;;;15.40;8.40;;;;;;;6.03;89.90;100334.34;102583;1292;24272;-64
2023/01/02 05:47:30;;;;;;;13.40;8.30;;;;;;;6.00;89.81;100332.88;106883;1300;138940;-63
2023/01/02 05:49:57;;;;;;;18.30;9.20;;;;;;;5.97;89.78;100332.73;106978;1300;23005;-64
2023/01/02 05:52:23;;;;;;;;;;;;;;;5.94;89.84;100332.91;106963;1300;22338;-64
2023/01/02 05:54:50;;;;;;;15.80;8.50;;;;;;;5.90;89.76;100333.99;106867;1299;124379;-63
2023/01/02 05:57:17;;;;;;;13.20;8.60;;;;;;;5.85;89.83;100333.55;106986;1291;22127;-63
2023/01/02 05:59:43;;;;;;;18.10;8.70;;;;;;;5.82;89.64;100335.41;106816;1300;137878;-64
2023/01/02 06:02:10;;;;;;;13.80;8.40;;;;;;;5.79;89.96;100330.24;106953;1300;23232;-64
2023/01/02 06:04:37;;;;;;;18.00;8.20;;;;;;;5.77;89.97;100331.58;106972;1281;22289;-64
2023/01/02 06:07:04;;;;;;;13.80;7.80;;;;;;;5.75;90.22;100332.88;106847;1300;139351;-64
2023/01/02 06:09:30;;;;;;;13.40;7.90;;;;;;;5.73;90.23;100333.77;106966;1300;22186;-64
2023/01/02 06:11:57;;;;;;;14.60;8.10;;;;;;;5.75;90.68;100338.00;106862;1300;138373;-64
2023/01/02 06:14:24;;;;;;;13.50;8.50;;;;;;;5.76;90.82;100334.51;106963;1298;22240;-64
2023/01/02 06:16:51;;;;;;;;;;;;;;;5.77;91.01;100335.04;106982;1300;23537;-64
2023/01/02 06:19:17;;;;;;;14.80;9.00;;;;;;;5.78;91.02;100333.73;106843;1291;125270;-64
2023/01/02 06:21:45;;;;;;;14.40;8.60;;;;;;;5.79;91.38;100335.82;106953;1300;22251;-64
2023/01/02 06:24:11;;;;;;;16.60;10.00;;;;;;;5.79;91.25;100337.27;106876;1300;138404;-64
2023/01/02 06:26:38;;;;;;;;;;;;;;;5.78;91.25;100340.39;106980;1299;22399;-65
2023/01/02 06:29:05;;;;;;;18.80;11.60;;;;;;;5.77;91.12;100346.39;106954;1300;22175;-64
2023/01/02 06:31:32;;;;;;;24.00;11.00;;;;;;;5.75;91.43;100346.52;106861;1300;137135;-64
2023/01/02 06:34:00;;;;;;;25.90;10.80;;;;;;;5.74;91.25;100349.56;106988;1300;22309;-65
2023/01/02 06:36:31;;;;;;;25.30;11.20;;;;;;;5.72;91.35;100354.63;106838;1299;139429;-65
2023/01/02 06:38:58;;;;;;;25.10;10.90;;;;;;;5.71;91.23;100353.38;106977;1300;22284;-64
2023/01/02 06:41:24;;;;;;;25.20;11.40;;;;;;;5.70;91.26;100358.33;106857;1299;138638;-64
2023/01/02 06:43:52;;;;;;;36.00;12.20;;;;;;;5.69;91.57;100351.95;106955;1300;22070;-64
2023/01/02 06:46:19;;;;;;;;;;;;;;;5.69;91.69;100352.41;107029;1300;22342;-65
2023/01/02 06:48:47;;;;;;;27.90;13.20;;;;;;;5.71;92.03;100354.00;106812;1277;124124;-64
2023/01/02 06:51:17;;;;;;;31.40;13.20;;;;;;;5.73;92.39;100352.34;106964;1292;22129;-64
2023/01/02 06:53:44;;;;;;;31.50;14.80;;;;;;;5.76;92.52;100354.63;106814;1290;139065;-64
2023/01/02 06:56:11;;;;;;;26.60;13.20;;;;;;;5.78;92.81;100355.29;106946;1286;22157;-64
2023/01/02 06:58:38;;;;;;;28.40;14.50;;;;;;;5.79;93.11;100352.80;106941;1300;22196;-64
2023/01/02 07:01:10;;;;;;;26.20;15.60;;;;;;;5.85;93.04;100363.25;106887;1300;137663;-64
2023/01/02 07:03:37;;;;;;;28.30;15.80;;;;;;;5.90;93.73;100366.83;106941;1299;22105;-64
2023/01/02 07:06:11;;;;;;;25.40;14.30;;;;;;;5.94;93.89;100373.30;106847;1299;138583;-64
2023/01/02 07:08:38;;;;;;;31.20;13.50;;;;;;;5.99;94.04;100377.61;106871;1298;22200;-64
2023/01/02 07:11:19;;;;;;;20.30;12.80;;;;;;;6.02;94.18;100375.54;106976;1298;22134;-65
2023/01/02 07:13:48;;;;;;;23.60;12.90;;;;;;;6.08;94.51;100375.32;106822;1292;22214;-64
2023/01/02 07:16:15;;;;;;;18.70;11.60;;;;;;;6.13;94.64;100372.49;106863;1300;22131;-64
2023/01/02 07:18:42;;;;;;;21.30;12.40;;;;;;;6.21;94.90;100377.11;106841;1292;139361;-64
2023/01/02 07:21:10;;;;;;;18.30;12.20;;;;;;;6.28;95.01;100380.32;106842;1300;22355;-64
2023/01/02 07:23:36;;;;;;;22.00;12.20;;;;;;;6.36;95.24;100382.51;106751;1300;138906;-64
2023/01/02 07:26:04;;;;;;;21.50;12.70;;;;;;;6.43;95.31;100385.05;106962;1285;22169;-64
2023/01/02 07:28:31;;;;;;;21.50;12.70;;;;;;;6.52;95.53;100392.91;106877;1301;22331;-64
2023/01/02 07:31:00;;;;;;;18.90;11.90;;;;;;;6.61;95.60;100395.55;106858;1290;140193;-64
2023/01/02 07:33:27;;;;;;;19.10;12.30;;;;;;;6.68;95.50;100397.16;106936;1300;22324;-64
2023/01/02 07:35:58;;;;;;;16.90;11.60;;;;;;;6.76;95.56;100400.04;106824;1300;138278;-64
2023/01/02 07:38:25;;;;;;;23.40;12.80;;;;;;;6.84;95.47;100404.59;106912;1292;22157;-64
2023/01/02 07:40:51;;;;;;;22.80;13.30;;;;;;;6.91;95.47;100411.79;103690;1283;22479;-63
2023/01/02 07:43:18;;;;;;;;;;;;;;;6.97;95.40;100409.98;102399;1292;138537;-63
2023/01/02 07:45:45;;;;;;;19.20;10.60;;;;;;;7.02;95.39;100404.55;106703;1301;22118;-65
2023/01/02 07:48:16;;;;;;;14.80;10.50;;;;;;;7.08;95.22;100403.90;106861;1300;138066;-64
2023/01/02 07:50:43;;;;;;;15.20;9.80;;;;;;;7.14;95.21;100403.42;106941;1300;22102;-64
2023/01/02 07:53:10;;;;;;;18.10;10.60;;;;;;;7.21;94.98;100400.36;106939;1300;22252;-64
2023/01/02 07:55:36;;;;;;;19.20;11.30;;;;;;;7.27;95.10;100404.83;106838;1298;139329;-64
2023/01/02 07:58:03;;;;;;;21.00;12.40;;;;;;;7.34;94.96;100410.40;106940;1299;22986;-65
2023/01/02 08:00:30;;;;;;;17.30;12.80;;;;;;;7.41;94.89;100409.14;106900;1300;139185;-64
2023/01/02 08:02:56;;;;;;;19.40;13.20;;;;;;;7.48;94.62;100413.83;106950;1300;22140;-65
2023/01/02 08:05:23;;;;;;;19.40;12.70;;;;;;;7.54;94.43;100413.54;106868;1285;138578;-64
2023/01/02 08:07:51;;;;;;;22.30;13.70;;;;;;;7.59;94.20;100408.65;106978;1291;22125;-64
2023/01/02 08:10:17;;;;;;;20.30;12.60;;;;;;;7.64;94.10;100402.48;106951;1300;22940;-65
2023/01/02 08:12:44;;;;;;;20.70;11.40;;;;;;;7.70;93.71;100406.83;106815;1287;138741;-64
2023/01/02 08:15:11;;;;;;;23.30;12.00;;;;;;;7.77;93.54;100407.73;106943;1300;22191;-65
2023/01/02 08:17:40;;;;;;;17.00;10.00;;;;;;;7.82;93.47;100407.34;106814;1291;138585;-64
2023/01/02 08:20:07;;;;;;;17.10;10.80;;;;;;;7.87;93.15;100413.91;106946;1300;22333;-64
2023/01/02 08:22:34;;;;;;;14.20;10.60;;;;;;;7.93;92.97;100413.92;106869;1284;22167;-64
2023/01/02 08:25:01;;;;;;;;;;;;;;;7.99;92.75;100416.91;106838;1300;138724;-64
2023/01/02 08:27:28;;;;;;;14.90;9.60;;;;;;;8.05;92.69;100416.50;106954;1300;22187;-66
2023/01/02 08:29:54;;;;;;;;;;;;;;;8.11;92.51;100416.65;106877;1300;138058;-65
2023/01/02 08:32:21;;;;;;;12.80;8.70;;;;;;;8.16;92.33;100414.58;106971;1292;22127;-65
2023/01/02 08:34:48;;;;;;;15.10;9.60;;;;;;;8.22;92.13;100419.63;106954;1292;22328;-65
2023/01/02 08:37:14;;;;;;;;;;;;;;;8.27;91.81;100423.05;106844;1300;137443;-65
2023/01/02 08:39:41;;;;;;;13.50;8.60;;;;;;;8.32;91.67;100422.88;106957;1300;22282;-65
2023/01/02 08:42:08;;;;;;;11.10;8.10;;;;;;;8.36;91.35;100421.64;106853;1300;138590;-65
2023/01/02 08:44:36;;;;;;;;;;;;;;;8.40;91.05;100421.55;107011;1299;22339;-65
2023/01/02 08:47:04;;;;;;;17.10;8.90;;;;;;;8.44;90.81;100421.45;106966;1300;23154;-67
2023/01/02 08:49:31;;;;;;;14.40;8.80;;;;;;;8.48;90.53;100424.97;106843;1300;139954;-68
2023/01/02 08:51:57;;;;;;;;;;;;;;;8.51;90.51;100417.95;106967;1291;23045;-59
2023/01/02 08:54:24;;;;;;;15.00;9.00;;;;;;;8.54;90.29;100413.95;106865;1292;124827;-59
2023/01/02 08:56:51;;;;;;;;;;;;;;;8.57;89.92;100412.00;106713;1300;139735;-56
2023/01/02 08:59:18;;;;;;;12.60;8.10;;;;;;;8.61;89.75;100411.58;106866;1300;22332;-57
2023/01/02 09:01:44;;;;;;;14.20;8.60;;;;;;;8.64;89.63;100408.32;106738;1299;137769;-56
2023/01/02 09:04:11;;;;;;;11.80;8.40;;;;;;;8.69;89.64;100403.73;106769;1302;22228;-56
2023/01/02 09:06:40;;;;;;;12.70;8.20;;;;;;;8.75;89.51;100404.14;106856;1300;22196;-56
2023/01/02 09:09:06;;;;;;;12.50;7.90;;;;;;;8.80;89.18;100408.64;106817;1278;138373;-56
2023/01/02 09:11:43;;;;;;;16.00;8.90;;;;;;;8.83;88.93;100400.37;106840;1300;22120;-56
2023/01/02 09:14:10;;;;;;;14.30;7.40;;;;;;;8.87;88.65;100403.31;106697;1294;137948;-56
2023/01/02 09:16:36;;;;;;;;;;;;;;;8.90;88.48;100402.20;106845;1278;23645;-56
2023/01/02 09:19:03;;;;;;;9.50;7.10;;;;;;;8.93;88.38;100395.61;106780;1300;124518;-55
2023/01/02 09:21:30;;;;;;;10.00;7.10;;;;;;;8.96;88.12;100402.54;106883;1300;22120;-56
2023/01/02 09:23:56;;;;;;;13.60;7.80;;;;;;;8.96;87.80;100397.11;106874;1293;22748;-56
2023/01/02 09:26:23;;;;;;;;;;;;;;;9.01;87.47;100400.52;106748;1300;138226;-56
2023/01/02 09:28:50;;;;;;;13.40;8.30;;;;;;;9.03;87.39;100398.58;106872;1300;22138;-56
2023/01/02 09:31:17;;;;;;;;;;;;;;;9.05;87.26;100393.59;106786;1300;138238;-56
2023/01/02 09:33:44;;;;;;;16.10;8.20;;;;;;;9.08;87.24;100393.85;106852;1299;22221;-57
2023/01/02 09:36:12;;;;;;;15.80;8.10;;;;;;;9.11;87.11;100390.70;106749;1300;22093;-57
2023/01/02 09:38:39;;;;;;;14.90;8.90;;;;;;;9.14;87.05;100386.40;106753;1293;137806;-56
2023/01/02 09:41:14;;;;;;;11.70;8.20;;;;;;;9.18;87.07;100388.33;103180;1303;25572;-55
2023/01/02 09:43:44;;;;;;;12.50;8.50;;;;;;;9.23;86.79;100387.27;102194;1295;138201;-56
2023/01/02 09:46:54;;;;;;;16.80;10.80;;;;;;;9.26;86.64;100386.30;102400;1295;22848;-55
2023/01/02 09:49:22;;;;;;;12.50;8.90;;;;;;;9.30;86.34;100384.62;102310;1285;139331;-56
2023/01/02 09:51:49;;;;;;;12.00;8.60;;;;;;;9.31;86.22;100384.14;102445;1294;22464;-56
2023/01/02 09:54:36;;;;;;;11.00;7.40;;;;;;;9.34;86.07;100386.34;102205;1295;22492;-55
2023/01/02 09:57:28;;;;;;;15.60;8.60;;;;;;;9.36;85.76;100384.42;102391;1286;139517;-56
2023/01/02 10:00:24;;;;;;;12.40;8.20;;;;;;;9.39;85.77;100380.34;102490;1294;22492;-56
2023/01/02 10:03:07;;;;;;;17.60;8.30;;;;;;;9.42;85.64;100379.90;106389;1310;137419;-57
2023/01/02 10:05:39;;;;;;;13.70;9.10;;;;;;;9.44;85.51;100383.25;106736;1302;22116;-56
2023/01/02 10:08:21;;;;;;;14.90;8.80;;;;;;;9.47;85.30;100384.36;106742;1297;137672;-56
2023/01/02 10:11:17;;;;;;;14.70;8.90;;;;;;;9.48;84.99;100376.73;106808;1303;22960;-56
2023/01/02 10:14:05;;;;;;;10.80;7.40;;;;;;;9.51;84.95;100376.54;106630;1289;139451;-56
2023/01/02 10:16:54;;;;;;;10.50;7.80;;;;;;;9.52;84.61;100372.73;106798;1302;22129;-57
2023/01/02 10:19:56;;;;;;;12.60;7.70;;;;;;;9.54;84.32;100370.55;106776;1300;138138;-57
2023/01/02 10:22:29;;;;;;;11.50;7.80;;;;;;;9.56;84.31;100374.17;106784;1300;22181;-54
2023/01/02 10:25:09;;;;;;;12.30;8.70;;;;;;;9.60;84.20;100367.90;106719;1303;22160;-54
2023/01/02 10:27:39;;;;;;;21.20;11.00;;;;;;;9.64;84.19;100364.54;106771;1292;23214;-55
2023/01/02 10:30:23;;;;;;;20.80;10.40;;;;;;;9.68;84.22;100363.09;106807;1285;23146;-54
2023/01/02 10:33:09;;;;;;;16.30;10.40;;;;;;;9.72;84.05;100356.13;106658;1288;137911;-55
2023/01/02 10:35:43;;;;;;;20.70;10.30;;;;;;;9.74;83.82;100350.60;106906;1295;22258;-55
2023/01/02 10:38:11;;;;;;;15.50;9.40;;;;;;;9.77;83.56;100343.83;106640;1277;138104;-56
2023/01/02 10:40:39;;;;;;;18.30;10.60;;;;;;;9.80;83.65;100344.71;106939;1300;22247;-54
2023/01/02 10:43:07;;;;;;;15.40;9.70;;;;;;;9.84;83.47;100339.30;106655;1302;138825;-55
2023/01/02 10:45:34;;;;;;;15.60;9.50;;;;;;;9.86;83.15;100339.03;106803;1284;22203;-54
2023/01/02 10:48:00;;;;;;;;;;;;;;;9.91;83.06;100344.33;106846;1293;23385;-55
2023/01/02 10:50:29;;;;;;;15.50;9.40;;;;;;;9.92;83.14;100344.92;106818;1287;124340;-54
2023/01/02 10:53:18;;;;;;;14.50;9.70;;;;;;;9.95;82.86;100346.94;106818;1277;22329;-54
2023/01/02 10:55:45;;;;;;;13.90;8.90;;;;;;;9.98;82.78;100339.92;106750;1302;137985;-56
2023/01/02 10:58:25;;;;;;;;;;;;;;;9.99;82.50;100334.18;106685;1295;22812;-54
2023/01/02 11:01:17;;;;;;;13.50;8.10;;;;;;;10.01;82.26;100333.52;106823;1302;22198;-54
2023/01/02 11:03:45;;;;;;;29.20;8.90;;;;;;;10.03;82.30;100334.71;106774;1302;22170;-54
2023/01/02 11:06:20;;;;;;;10.90;8.30;;;;;;;10.06;82.16;100338.73;106893;1297;22954;-54
2023/01/02 11:09:16;;;;;;;11.40;8.50;;;;;;;10.08;81.82;100338.18;106743;1300;138746;-54
2023/01/02 11:11:53;;;;;;;13.20;8.70;;;;;;;10.09;81.75;100337.82;106772;1302;22126;-54
2023/01/02 11:14:31;;;;;;;16.60;9.50;;;;;;;10.12;81.57;100337.77;106778;1285;138628;-54
2023/01/02 11:17:17;;;;;;;14.90;9.10;;;;;;;10.14;81.57;100334.46;106935;1297;22160;-54
2023/01/02 11:19:45;;;;;;;16.90;10.60;;;;;;;10.16;81.38;100328.20;106665;1302;138842;-54
2023/01/02 11:22:13;;;;;;;17.10;10.80;;;;;;;10.19;81.23;100335.92;106755;1302;22128;-54
2023/01/02 11:24:54;;;;;;;19.30;12.20;;;;;;;10.20;81.14;100338.02;106907;1285;22216;-54
2023/01/02 11:27:36;;;;;;;25.40;11.40;;;;;;;10.21;80.87;100346.33;106607;1303;138658;-55
2023/01/02 11:30:04;;;;;;;;;;;;;;;10.22;80.68;100349.13;106815;1302;22356;-54
2023/01/02 11:32:38;;;;;;;19.00;11.30;;;;;;;10.23;80.59;100340.44;106749;1287;126995;-54
2023/01/02 11:35:31;;;;;;;19.10;11.40;;;;;;;10.24;80.66;100337.34;106911;1300;22706;-55
2023/01/02 11:37:57;;;;;;;17.80;11.30;;;;;;;10.27;80.67;100341.98;106657;1303;140791;-54
2023/01/02 11:40:26;;;;;;;20.70;12.90;;;;;;;10.30;80.67;100343.73;106713;1297;22323;-54
2023/01/02 11:45:39;;;;;;;19.40;12.90;;;;;;;10.38;80.70;100333.64;106788;1281;23509;-54